createdAt,value
2022-08-16T04:00:41.563Z,22.68
2022-08-16T04:03:47.095Z,23.44
2022-08-16T04:06:52.578Z,23.70
2022-08-16T04:09:59.780Z,23.87
2022-08-16T04:14:00.437Z,23.98
2022-08-16T04:16:46.486Z,24.16
2022-08-16T04:19:58.214Z,24.17
2022-08-16T04:23:02.969Z,24.20
2022-08-16T04:26:07.125Z,24.24
2022-08-16T04:29:24.945Z,24.21
2022-08-16T04:32:27.981Z,24.15
2022-08-16T04:35:34.021Z,24.31
2022-08-16T04:38:37.673Z,24.27
2022-08-16T04:41:41.140Z,24.21
2022-08-16T04:44:53.485Z,24.18
2022-08-16T04:48:00.118Z,24.16
2022-08-16T04:51:07.875Z,24.26
2022-08-16T04:54:15.393Z,24.39
2022-08-16T04:57:22.450Z,24.48
2022-08-16T05:00:36.148Z,24.55
2022-08-16T05:03:41.750Z,24.54
2022-08-16T05:07:02.957Z,24.49
2022-08-16T05:10:19.844Z,24.59
2022-08-16T05:13:40.600Z,24.48
2022-08-16T05:16:45.580Z,24.55
2022-08-16T05:19:57.666Z,24.74
2022-08-16T05:23:01.533Z,24.90
2022-08-16T05:26:04.977Z,24.81
2022-08-16T05:29:11.154Z,24.48
2022-08-16T05:32:32.816Z,24.37
2022-08-16T05:35:39.613Z,24.32
2022-08-16T05:38:47.022Z,23.75
2022-08-16T05:41:51.937Z,23.65
2022-08-16T05:44:55.202Z,23.80
2022-08-16T05:48:01.794Z,23.77
2022-08-16T05:51:10.392Z,23.86
2022-08-16T05:54:17.464Z,23.86
2022-08-16T05:57:27.850Z,24.10
2022-08-16T06:00:38.459Z,24.35
2022-08-16T06:03:41.315Z,24.55
2022-08-16T06:06:56.480Z,24.73
2022-08-16T06:10:01.457Z,25.11
2022-08-16T06:13:04.819Z,25.26
2022-08-16T06:16:07.653Z,25.42
2022-08-16T06:19:12.403Z,25.50
2022-08-16T06:22:19.459Z,25.63
2022-08-16T06:25:40.451Z,25.71
2022-08-16T06:28:43.557Z,26.00
2022-08-16T06:31:50.435Z,26.20
2022-08-16T06:34:55.666Z,26.38
2022-08-16T06:38:00.841Z,26.59
2022-08-16T06:41:13.572Z,26.86
2022-08-16T06:44:21.024Z,26.95
2022-08-16T06:47:29.007Z,27.02
2022-08-16T06:50:50.170Z,27.00
2022-08-16T06:53:53.033Z,27.17
2022-08-16T06:56:55.758Z,27.33
2022-08-16T06:59:58.740Z,27.47
2022-08-16T07:03:28.135Z,27.53
2022-08-16T07:06:31.498Z,27.67
2022-08-16T07:09:34.067Z,27.71
2022-08-16T07:12:47.401Z,27.81
2022-08-16T07:16:00.753Z,27.98
2022-08-16T07:19:05.077Z,27.98
2022-08-16T07:22:38.334Z,27.94
2022-08-16T07:25:31.313Z,28.02
2022-08-16T07:28:35.555Z,28.33
2022-08-16T07:31:39.564Z,28.39
2022-08-16T07:34:48.623Z,28.42
2022-08-16T07:37:53.319Z,28.41
2022-08-16T07:41:01.191Z,28.39
2022-08-16T07:44:16.302Z,28.62
2022-08-16T07:47:19.846Z,28.57
2022-08-16T07:50:55.837Z,28.24
2022-08-16T07:54:04.150Z,28.03
2022-08-16T07:57:14.078Z,28.17
2022-08-16T08:00:25.227Z,28.28
2022-08-16T08:03:35.939Z,28.41
2022-08-16T08:06:42.574Z,28.30
2022-08-16T08:09:46.181Z,28.48
2022-08-16T08:12:49.517Z,28.69
2022-08-16T08:15:53.463Z,28.88
2022-08-16T08:19:01.027Z,28.98
2022-08-16T08:22:06.482Z,29.07
2022-08-16T08:25:09.430Z,29.28
2022-08-16T08:28:17.646Z,29.57
2022-08-16T08:31:20.305Z,30.01
2022-08-16T08:34:23.727Z,30.23
2022-08-16T08:37:26.999Z,30.31
2022-08-16T08:40:56.900Z,30.42
2022-08-16T08:43:59.882Z,30.27
2022-08-16T08:47:09.245Z,30.23
2022-08-16T08:50:31.563Z,30.48
2022-08-16T08:53:36.483Z,30.62
2022-08-16T08:56:45.377Z,30.73
2022-08-16T08:59:52.900Z,30.86
2022-08-16T09:02:57.366Z,30.88
2022-08-16T09:06:01.575Z,31.16
2022-08-16T09:09:06.574Z,31.37
2022-08-16T09:12:31.252Z,31.49
2022-08-16T09:15:38.649Z,31.59
2022-08-16T09:18:41.606Z,31.75
2022-08-16T09:21:44.549Z,32.00
2022-08-16T09:25:11.010Z,32.01
2022-08-16T09:29:15.375Z,32.33
2022-08-16T09:31:43.553Z,32.58
2022-08-16T09:34:47.345Z,32.58
2022-08-16T09:38:00.951Z,32.67
2022-08-16T09:42:56.594Z,33.25
2022-08-16T09:45:57.781Z,33.25
2022-08-16T09:49:03.832Z,32.87
2022-08-16T09:52:07.289Z,33.15
2022-08-16T09:55:12.497Z,33.40
2022-08-16T09:58:41.893Z,33.42
2022-08-16T10:01:43.606Z,33.46
2022-08-16T10:04:54.292Z,33.10
2022-08-16T10:07:57.357Z,33.47
2022-08-16T10:11:23.911Z,33.93
2022-08-16T10:14:32.965Z,34.21
2022-08-16T10:17:38.659Z,34.32
2022-08-16T10:20:45.811Z,34.37
2022-08-16T10:23:53.609Z,34.44
2022-08-16T10:27:17.825Z,34.39
2022-08-16T10:30:26.249Z,34.82
2022-08-16T10:33:34.000Z,35.04
2022-08-16T10:36:39.188Z,35.06
2022-08-16T10:39:42.506Z,34.76
2022-08-16T10:42:45.467Z,34.84
2022-08-16T10:46:00.436Z,34.71
2022-08-16T10:49:05.096Z,34.77
2022-08-16T10:52:18.619Z,34.84
2022-08-16T10:55:40.768Z,34.57
2022-08-16T10:58:44.555Z,34.60
2022-08-16T11:05:16.888Z,35.00
2022-08-16T11:08:23.571Z,35.12
2022-08-16T11:12:14.024Z,34.98
2022-08-16T11:15:17.966Z,35.01
2022-08-16T11:19:04.911Z,35.21
2022-08-16T11:25:59.613Z,34.76
2022-08-16T11:31:54.550Z,34.20
2022-08-16T11:35:15.786Z,33.26
2022-08-16T11:38:46.857Z,32.34
2022-08-16T11:41:45.170Z,31.43
2022-08-16T11:44:56.879Z,30.59
2022-08-16T11:48:00.363Z,30.17
2022-08-16T11:51:04.698Z,30.02
2022-08-16T11:54:09.038Z,30.14
2022-08-16T11:57:25.322Z,30.24
2022-08-16T12:00:33.761Z,29.91
2022-08-16T12:03:53.504Z,29.59
2022-08-16T12:06:55.928Z,28.95
2022-08-16T12:10:00.451Z,28.72
2022-08-16T12:13:04.019Z,28.53
2022-08-16T12:16:08.222Z,28.51
2022-08-16T12:19:13.887Z,28.79
2022-08-16T12:22:18.953Z,29.18
2022-08-16T12:25:25.555Z,29.65
2022-08-16T12:28:54.945Z,30.19
2022-08-16T12:32:01.262Z,30.51
2022-08-16T12:35:19.245Z,31.15
2022-08-16T12:38:41.696Z,31.88
2022-08-16T12:41:46.656Z,32.34
2022-08-16T12:44:50.396Z,32.82
2022-08-16T12:48:32.643Z,33.02
2022-08-16T12:51:57.951Z,32.86
2022-08-16T12:55:04.215Z,32.49
2022-08-16T12:58:13.773Z,32.18
2022-08-16T13:01:31.825Z,31.95
2022-08-16T13:04:35.454Z,31.82
2022-08-16T13:07:45.260Z,31.76
2022-08-16T13:10:56.865Z,31.61
2022-08-16T13:13:59.483Z,31.55
2022-08-16T13:17:06.704Z,31.51
2022-08-16T13:20:14.739Z,32.01
2022-08-16T13:23:18.693Z,32.36
2022-08-16T13:26:22.655Z,32.93
2022-08-16T13:29:26.019Z,33.39
2022-08-16T13:32:42.949Z,33.67
2022-08-16T13:35:56.339Z,33.94
2022-08-16T13:39:03.528Z,34.06
2022-08-16T13:42:11.860Z,34.33
2022-08-16T13:45:16.218Z,34.51
2022-08-16T13:48:21.732Z,34.22
2022-08-16T13:51:29.266Z,34.27
2022-08-16T13:54:32.969Z,34.52
2022-08-16T13:57:53.647Z,34.73
2022-08-16T14:01:00.665Z,34.70
2022-08-16T14:04:05.084Z,34.89
2022-08-16T14:07:11.467Z,34.95
2022-08-16T14:10:15.394Z,34.83
2022-08-16T14:13:21.094Z,35.13
2022-08-16T14:16:33.530Z,35.19
2022-08-16T14:19:36.624Z,34.99
2022-08-16T14:22:42.553Z,34.63
2022-08-16T14:25:45.984Z,34.47
2022-08-16T14:29:01.241Z,34.38
2022-08-16T14:32:07.175Z,34.39
2022-08-16T14:35:13.795Z,34.64
2022-08-16T14:38:18.531Z,34.86
2022-08-16T14:41:22.207Z,34.79
2022-08-16T14:44:26.185Z,34.69
2022-08-16T14:47:34.095Z,34.45
2022-08-16T14:50:42.006Z,34.42
2022-08-16T14:53:45.471Z,34.87
2022-08-16T14:56:55.039Z,34.75
2022-08-16T15:00:04.739Z,34.07
2022-08-16T15:03:10.744Z,33.87
2022-08-16T15:06:14.543Z,33.61
2022-08-16T15:09:18.601Z,32.82
2022-08-16T15:12:26.584Z,31.84
